Aviation Digital Data Service (ADDS)

Output produced by METARs form (2128 UTC 21 May 2022)
found at http://www.aviationweather.gov/metar/data/
 
TAF TFFR 211600Z 2118/2218 12010KT 9999 SCT040 
     TEMPO 2203/2211 VRB02KT